Terminal Aerodrome Forecast
Issued by NWS

Home | Current Version | Previous Version | Text Only | Print | Product List | Glossary On
Versions: 1 2 3 4 5 6 7 8 9 10 11 12 13 14 15 16 17 18 19 20
687
FTUS41 KCAR 200029 AAA
TAFHUL
TAF AMD
KHUL 200029Z 2000/2024 00000KT P6SM SKC
      TEMPO 2000/2002 2SM BR
     FM200400 VRB03KT P6SM OVC008
     FM200600 VRB03KT 2SM BR OVC003
     FM201300 VRB03KT 4SM BR OVC008
     FM201500 04006KT P6SM BKN015
     FM202100 02008KT P6SM BKN035=

USA.gov is the U.S. government's official web portal to all federal, state and local government web resources and services.